MMMY

General Mariano Escobedo International Airport

Monterrey, Mexico
TAF MMMY 201026Z 2012/2118 09006KT P6SM SKC TX37/2022Z TN25/2012Z FM201800 13010KT P6SM SCT040 FM210600 20004KT P6SM SKC BECMG 2110/2112 22004KT
Issued Valid From Valid To
Jul-20 @ 10:26 UTC
(4 hours ago)
Jul-20 @ 12:00 UTC
(2 hours ago)
Jul-21 @ 18:00 UTC
(-1 days ago)
Jul-20 @ 12:00 to Jul-20 @ 18:00
TAF MMMY 201026Z 2012/2118 09006KT P6SM SKC TX37/2022Z TN25/2012Z
Wind Visibility Clouds
90° at 6 knots Greater than 6 miles
  • Clear skies
From Jul-20 @ 18:00 to Jul-21 @ 06:00
FM201800 13010KT P6SM SCT040
Wind Visibility Clouds
130° at 10 knots Greater than 6 miles
  • Scattered at 4,000' AGL
From Jul-21 @ 06:00 to Jul-21 @ 10:00
FM210600 20004KT P6SM SKC
Wind Visibility Clouds
200° at 4 knots Greater than 6 miles
  • Clear skies
Becoming Jul-21 @ 10:00 to Jul-21 @ 18:00
BECMG 2110/2112 22004KT
Wind Visibility Clouds
220° at 4 knots Greater than 6 miles
  • Clear skies
TAF MMMY 201026Z 2012/2118 09006KT P6SM SKC TX37/2022Z TN25/2012Z FM201800 13010KT P6SM SCT040 FM210600 20004KT P6SM SKC BECMG 2110/2112 22004KT
Issued Jul-20 @ 10:26 UTC
(4 hours ago)
Valid From Jul-20 @ 12:00 UTC
(2 hours ago)
Valid To Jul-21 @ 18:00 UTC
(-1 days ago)
Jul-20 @ 12:00 - Jul-20 @ 18:00
Wind Visibility
90° at 6 knots Greater than 6 miles
Clouds
  • Clear skies
From Jul-20 @ 18:00 - Jul-21 @ 06:00
Wind Visibility
130° at 10 knots Greater than 6 miles
Clouds
  • Scattered at 4,000' AGL
From Jul-21 @ 06:00 - Jul-21 @ 10:00
Wind Visibility
200° at 4 knots Greater than 6 miles
Clouds
  • Clear skies
Becoming Jul-21 @ 10:00 - Jul-21 @ 18:00
Wind Visibility
220° at 4 knots Greater than 6 miles
Clouds
  • Clear skies